Terminal Aerodrome Forecast
Issued by NWS Pittsburgh, PA

Current Version | Previous Version | Graphics & Text | Print | Product List | Glossary On
Versions: 1 2 3 4 5 6 7 8 9 10 11 12 13 14 15 16 17 18 19 20 21 22 23 24 25 26 27 28 29 30 31 32
000
FTUS41 KPBZ 232335
TAFPIT
TAF
KPIT 232335Z 2400/2506 12005KT P6SM SCT150 BKN250
     FM240600 11003KT P6SM VCSH BKN050
     FM241400 12006KT P6SM BKN025
     FM242300 12010KT P6SM -SHRA OVC015
     FM250100 12009KT P6SM -SHRA OVC008=

USA.gov is the U.S. government's official web portal to all federal, state and local government web resources and services.